Winchcomb, United Kingdom
Current Conditions -  °F | °C
As of 2:20 PM on Monday 20 Oct 2014 (Local Time) from EGBJ Reporting Station
Scattered Clouds Scattered Clouds  
Wind Chill: 59°   Ceiling: Unl
Heat Index: 59°   Visibility: 6mi
Dew Point: 52°   Wind: 12mph
Humidity: 77%   Direction: 210°SSW
Pressure: 29.94"   Gusts: NA
Location:  51.95°N, 1.97°W
Report Text: EGBJ 201320Z 21010KT 9999 FEW013 SCT028 15/11 Q1014
Loading
Personal Weather Stations






























Interactive Weather Map
Tropical Storm Tracking
New forecast layout! Learn more

10-Day Weather Forecast

Advertisements
Track Severe Weather on mobile